sensor_id;sensor_type;location;lat;lon;timestamp;P1;durP1;ratioP1;P2;durP2;ratioP2
14276;SDS011;7222;57.346;12.150;2022-12-01T00:02:22;5.17;;;3.67;;
14276;SDS011;7222;57.346;12.150;2022-12-01T00:04:49;4.43;;;3.53;;
14276;SDS011;7222;57.346;12.150;2022-12-01T00:07:16;4.27;;;3.80;;
14276;SDS011;7222;57.346;12.150;2022-12-01T00:09:42;5.00;;;3.63;;
14276;SDS011;7222;57.346;12.150;2022-12-01T00:12:29;4.83;;;3.73;;
14276;SDS011;7222;57.346;12.150;2022-12-01T00:14:56;6.40;;;4.23;;
14276;SDS011;7222;57.346;12.150;2022-12-01T00:17:26;3.90;;;3.50;;
14276;SDS011;7222;57.346;12.150;2022-12-01T00:19:54;6.00;;;4.13;;
14276;SDS011;7222;57.346;12.150;2022-12-01T00:22:22;5.30;;;3.63;;
14276;SDS011;7222;57.346;12.150;2022-12-01T00:24:49;5.83;;;3.93;;
14276;SDS011;7222;57.346;12.150;2022-12-01T00:27:15;4.87;;;4.00;;
14276;SDS011;7222;57.346;12.150;2022-12-01T00:29:44;5.80;;;3.97;;
14276;SDS011;7222;57.346;12.150;2022-12-01T00:32:11;6.40;;;3.90;;
14276;SDS011;7222;57.346;12.150;2022-12-01T00:34:39;4.93;;;3.40;;
14276;SDS011;7222;57.346;12.150;2022-12-01T00:37:05;6.03;;;4.47;;
14276;SDS011;7222;57.346;12.150;2022-12-01T00:39:32;4.77;;;3.40;;
14276;SDS011;7222;57.346;12.150;2022-12-01T00:41:59;5.27;;;3.50;;
14276;SDS011;7222;57.346;12.150;2022-12-01T00:44:26;3.87;;;3.30;;
14276;SDS011;7222;57.346;12.150;2022-12-01T00:46:55;4.63;;;3.60;;
14276;SDS011;7222;57.346;12.150;2022-12-01T00:49:22;6.40;;;3.87;;
14276;SDS011;7222;57.346;12.150;2022-12-01T00:51:49;7.23;;;3.80;;
14276;SDS011;7222;57.346;12.150;2022-12-01T00:54:16;4.70;;;3.47;;
14276;SDS011;7222;57.346;12.150;2022-12-01T00:56:42;3.60;;;3.00;;
14276;SDS011;7222;57.346;12.150;2022-12-01T00:59:10;4.73;;;3.50;;
14276;SDS011;7222;57.346;12.150;2022-12-01T01:01:37;4.83;;;3.60;;
14276;SDS011;7222;57.346;12.150;2022-12-01T01:04:05;6.57;;;3.83;;
14276;SDS011;7222;57.346;12.150;2022-12-01T01:06:32;5.30;;;3.50;;
14276;SDS011;7222;57.346;12.150;2022-12-01T01:08:59;5.07;;;3.63;;
14276;SDS011;7222;57.346;12.150;2022-12-01T01:11:26;4.03;;;3.23;;
14276;SDS011;7222;57.346;12.150;2022-12-01T01:13:53;4.03;;;3.30;;
14276;SDS011;7222;57.346;12.150;2022-12-01T01:16:24;4.90;;;3.63;;
14276;SDS011;7222;57.346;12.150;2022-12-01T01:18:53;5.13;;;3.60;;
14276;SDS011;7222;57.346;12.150;2022-12-01T01:21:23;4.03;;;3.63;;
14276;SDS011;7222;57.346;12.150;2022-12-01T01:23:51;5.20;;;4.07;;
14276;SDS011;7222;57.346;12.150;2022-12-01T01:26:21;5.37;;;3.60;;
14276;SDS011;7222;57.346;12.150;2022-12-01T01:28:54;4.83;;;3.60;;
14276;SDS011;7222;57.346;12.150;2022-12-01T01:31:25;4.80;;;3.57;;
14276;SDS011;7222;57.346;12.150;2022-12-01T01:33:54;6.50;;;4.23;;
14276;SDS011;7222;57.346;12.150;2022-12-01T01:36:23;4.60;;;3.80;;
14276;SDS011;7222;57.346;12.150;2022-12-01T01:38:51;3.70;;;3.20;;
14276;SDS011;7222;57.346;12.150;2022-12-01T01:41:20;5.30;;;3.20;;
14276;SDS011;7222;57.346;12.150;2022-12-01T01:43:48;4.87;;;3.70;;
14276;SDS011;7222;57.346;12.150;2022-12-01T01:46:16;3.90;;;3.33;;
14276;SDS011;7222;57.346;12.150;2022-12-01T01:48:45;3.73;;;2.90;;
14276;SDS011;7222;57.346;12.150;2022-12-01T01:51:16;4.37;;;3.03;;
14276;SDS011;7222;57.346;12.150;2022-12-01T01:53:47;4.83;;;3.43;;
14276;SDS011;7222;57.346;12.150;2022-12-01T01:56:15;6.03;;;3.53;;
14276;SDS011;7222;57.346;12.150;2022-12-01T01:58:43;4.53;;;3.30;;
14276;SDS011;7222;57.346;12.150;2022-12-01T02:01:10;5.53;;;3.17;;
14276;SDS011;7222;57.346;12.150;2022-12-01T02:03:37;3.50;;;3.07;;
14276;SDS011;7222;57.346;12.150;2022-12-01T02:06:07;4.60;;;3.40;;
14276;SDS011;7222;57.346;12.150;2022-12-01T02:08:35;4.63;;;3.70;;
14276;SDS011;7222;57.346;12.150;2022-12-01T02:11:07;5.87;;;3.40;;
14276;SDS011;7222;57.346;12.150;2022-12-01T02:13:45;4.60;;;3.53;;
14276;SDS011;7222;57.346;12.150;2022-12-01T02:16:20;5.60;;;4.50;;
14276;SDS011;7222;57.346;12.150;2022-12-01T02:18:55;4.20;;;3.17;;
14276;SDS011;7222;57.346;12.150;2022-12-01T02:21:27;4.73;;;3.30;;
14276;SDS011;7222;57.346;12.150;2022-12-01T02:27:18;5.47;;;3.70;;
14276;SDS011;7222;57.346;12.150;2022-12-01T02:30:00;4.67;;;3.50;;
14276;SDS011;7222;57.346;12.150;2022-12-01T02:32:35;5.27;;;3.53;;
14276;SDS011;7222;57.346;12.150;2022-12-01T02:35:22;4.60;;;3.50;;
14276;SDS011;7222;57.346;12.150;2022-12-01T02:37:57;5.13;;;3.93;;
14276;SDS011;7222;57.346;12.150;2022-12-01T02:40:35;4.80;;;3.47;;
14276;SDS011;7222;57.346;12.150;2022-12-01T02:43:08;4.77;;;3.17;;
14276;SDS011;7222;57.346;12.150;2022-12-01T02:45:40;4.40;;;3.23;;
14276;SDS011;7222;57.346;12.150;2022-12-01T02:48:15;4.93;;;3.67;;
14276;SDS011;7222;57.346;12.150;2022-12-01T02:50:46;4.83;;;3.30;;
14276;SDS011;7222;57.346;12.150;2022-12-01T02:53:15;4.70;;;3.60;;
14276;SDS011;7222;57.346;12.150;2022-12-01T02:55:47;5.30;;;3.27;;
14276;SDS011;7222;57.346;12.150;2022-12-01T02:58:15;4.43;;;3.43;;
14276;SDS011;7222;57.346;12.150;2022-12-01T03:00:44;4.97;;;3.37;;
14276;SDS011;7222;57.346;12.150;2022-12-01T03:03:30;5.33;;;3.83;;
14276;SDS011;7222;57.346;12.150;2022-12-01T03:06:18;4.37;;;3.60;;
14276;SDS011;7222;57.346;12.150;2022-12-01T03:08:58;4.20;;;3.37;;
14276;SDS011;7222;57.346;12.150;2022-12-01T03:11:34;5.37;;;3.80;;
14276;SDS011;7222;57.346;12.150;2022-12-01T03:14:08;4.30;;;3.40;;
14276;SDS011;7222;57.346;12.150;2022-12-01T03:16:46;4.60;;;3.67;;
14276;SDS011;7222;57.346;12.150;2022-12-01T03:19:19;6.30;;;4.03;;
14276;SDS011;7222;57.346;12.150;2022-12-01T03:22:00;5.73;;;3.27;;
14276;SDS011;7222;57.346;12.150;2022-12-01T03:24:34;4.37;;;3.07;;
14276;SDS011;7222;57.346;12.150;2022-12-01T03:27:02;4.37;;;3.13;;
14276;SDS011;7222;57.346;12.150;2022-12-01T03:29:31;3.40;;;2.90;;
14276;SDS011;7222;57.346;12.150;2022-12-01T03:32:02;4.97;;;3.20;;
14276;SDS011;7222;57.346;12.150;2022-12-01T03:34:35;5.30;;;3.87;;
14276;SDS011;7222;57.346;12.150;2022-12-01T03:37:08;5.10;;;3.37;;
14276;SDS011;7222;57.346;12.150;2022-12-01T03:39:38;4.70;;;3.20;;
14276;SDS011;7222;57.346;12.150;2022-12-01T03:42:09;4.77;;;3.70;;
14276;SDS011;7222;57.346;12.150;2022-12-01T03:44:41;4.90;;;3.70;;
14276;SDS011;7222;57.346;12.150;2022-12-01T03:47:12;4.23;;;2.93;;
14276;SDS011;7222;57.346;12.150;2022-12-01T03:49:43;6.53;;;3.57;;
14276;SDS011;7222;57.346;12.150;2022-12-01T03:52:14;4.70;;;3.70;;
14276;SDS011;7222;57.346;12.150;2022-12-01T03:54:46;4.30;;;3.23;;
14276;SDS011;7222;57.346;12.150;2022-12-01T03:57:22;4.30;;;3.07;;
14276;SDS011;7222;57.346;12.150;2022-12-01T03:59:54;5.07;;;3.10;;
14276;SDS011;7222;57.346;12.150;2022-12-01T04:02:21;4.37;;;3.53;;
14276;SDS011;7222;57.346;12.150;2022-12-01T04:04:53;5.10;;;3.60;;
14276;SDS011;7222;57.346;12.150;2022-12-01T04:07:20;4.63;;;3.50;;
14276;SDS011;7222;57.346;12.150;2022-12-01T04:09:47;5.00;;;3.67;;
14276;SDS011;7222;57.346;12.150;2022-12-01T04:12:14;4.07;;;3.03;;
14276;SDS011;7222;57.346;12.150;2022-12-01T04:14:57;5.03;;;3.63;;
14276;SDS011;7222;57.346;12.150;2022-12-01T04:17:26;3.87;;;2.87;;
14276;SDS011;7222;57.346;12.150;2022-12-01T04:19:55;3.57;;;3.07;;
14276;SDS011;7222;57.346;12.150;2022-12-01T04:22:22;4.27;;;3.30;;
14276;SDS011;7222;57.346;12.150;2022-12-01T04:24:50;3.17;;;2.80;;
14276;SDS011;7222;57.346;12.150;2022-12-01T04:27:17;4.23;;;3.17;;
14276;SDS011;7222;57.346;12.150;2022-12-01T04:29:45;4.33;;;3.07;;
14276;SDS011;7222;57.346;12.150;2022-12-01T04:32:12;4.27;;;3.00;;
14276;SDS011;7222;57.346;12.150;2022-12-01T04:34:39;4.73;;;3.07;;
14276;SDS011;7222;57.346;12.150;2022-12-01T04:37:07;3.67;;;3.30;;
14276;SDS011;7222;57.346;12.150;2022-12-01T04:39:36;5.63;;;3.43;;
14276;SDS011;7222;57.346;12.150;2022-12-01T04:42:03;4.97;;;3.60;;
14276;SDS011;7222;57.346;12.150;2022-12-01T04:44:31;5.77;;;3.60;;
14276;SDS011;7222;57.346;12.150;2022-12-01T04:46:57;3.67;;;3.00;;
14276;SDS011;7222;57.346;12.150;2022-12-01T04:49:25;4.57;;;3.40;;
14276;SDS011;7222;57.346;12.150;2022-12-01T04:51:52;4.67;;;3.53;;
14276;SDS011;7222;57.346;12.150;2022-12-01T04:54:20;4.57;;;2.90;;
14276;SDS011;7222;57.346;12.150;2022-12-01T04:56:47;4.23;;;3.33;;
14276;SDS011;7222;57.346;12.150;2022-12-01T04:59:14;4.20;;;2.93;;
14276;SDS011;7222;57.346;12.150;2022-12-01T05:01:42;3.70;;;2.80;;
14276;SDS011;7222;57.346;12.150;2022-12-01T05:04:10;3.67;;;3.17;;
14276;SDS011;7222;57.346;12.150;2022-12-01T05:06:38;4.70;;;3.43;;
14276;SDS011;7222;57.346;12.150;2022-12-01T05:09:09;5.17;;;3.50;;
14276;SDS011;7222;57.346;12.150;2022-12-01T05:11:40;3.87;;;3.47;;
14276;SDS011;7222;57.346;12.150;2022-12-01T05:14:07;3.37;;;3.03;;
14276;SDS011;7222;57.346;12.150;2022-12-01T05:16:34;3.40;;;2.90;;
14276;SDS011;7222;57.346;12.150;2022-12-01T05:19:02;4.70;;;3.20;;
14276;SDS011;7222;57.346;12.150;2022-12-01T05:21:48;5.53;;;3.93;;
14276;SDS011;7222;57.346;12.150;2022-12-01T05:24:15;3.63;;;2.90;;
14276;SDS011;7222;57.346;12.150;2022-12-01T05:26:44;4.67;;;3.00;;
14276;SDS011;7222;57.346;12.150;2022-12-01T05:29:12;3.40;;;2.90;;
14276;SDS011;7222;57.346;12.150;2022-12-01T05:31:39;3.43;;;2.80;;
14276;SDS011;7222;57.346;12.150;2022-12-01T05:34:06;4.63;;;3.20;;
14276;SDS011;7222;57.346;12.150;2022-12-01T05:36:34;4.10;;;2.90;;
14276;SDS011;7222;57.346;12.150;2022-12-01T05:39:01;4.17;;;2.97;;
14276;SDS011;7222;57.346;12.150;2022-12-01T05:41:28;3.93;;;2.70;;
14276;SDS011;7222;57.346;12.150;2022-12-01T05:43:56;4.73;;;3.37;;
14276;SDS011;7222;57.346;12.150;2022-12-01T05:46:23;3.73;;;2.83;;
14276;SDS011;7222;57.346;12.150;2022-12-01T05:48:50;3.73;;;2.83;;
14276;SDS011;7222;57.346;12.150;2022-12-01T05:51:17;4.03;;;3.20;;
14276;SDS011;7222;57.346;12.150;2022-12-01T05:53:44;5.30;;;3.13;;
14276;SDS011;7222;57.346;12.150;2022-12-01T05:56:11;3.83;;;2.87;;
14276;SDS011;7222;57.346;12.150;2022-12-01T05:58:38;4.33;;;2.90;;
14276;SDS011;7222;57.346;12.150;2022-12-01T06:01:07;4.53;;;3.00;;
14276;SDS011;7222;57.346;12.150;2022-12-01T06:03:34;4.47;;;3.07;;
14276;SDS011;7222;57.346;12.150;2022-12-01T06:06:01;3.27;;;2.47;;
14276;SDS011;7222;57.346;12.150;2022-12-01T06:08:28;2.87;;;2.40;;
14276;SDS011;7222;57.346;12.150;2022-12-01T06:10:55;2.93;;;2.30;;
14276;SDS011;7222;57.346;12.150;2022-12-01T06:13:22;3.27;;;2.40;;
14276;SDS011;7222;57.346;12.150;2022-12-01T06:15:59;3.00;;;2.50;;
14276;SDS011;7222;57.346;12.150;2022-12-01T06:18:30;4.47;;;3.10;;
14276;SDS011;7222;57.346;12.150;2022-12-01T06:20:59;3.53;;;2.57;;
14276;SDS011;7222;57.346;12.150;2022-12-01T06:23:26;3.67;;;2.73;;
14276;SDS011;7222;57.346;12.150;2022-12-01T06:25:53;4.53;;;3.10;;
14276;SDS011;7222;57.346;12.150;2022-12-01T06:28:20;3.00;;;2.13;;
14276;SDS011;7222;57.346;12.150;2022-12-01T06:30:47;4.00;;;2.60;;
14276;SDS011;7222;57.346;12.150;2022-12-01T06:33:14;3.13;;;2.73;;
14276;SDS011;7222;57.346;12.150;2022-12-01T06:35:43;3.03;;;2.50;;
14276;SDS011;7222;57.346;12.150;2022-12-01T06:38:10;4.20;;;2.70;;
14276;SDS011;7222;57.346;12.150;2022-12-01T06:40:37;3.07;;;2.20;;
14276;SDS011;7222;57.346;12.150;2022-12-01T06:43:04;3.27;;;2.30;;
14276;SDS011;7222;57.346;12.150;2022-12-01T06:45:31;3.20;;;2.50;;
14276;SDS011;7222;57.346;12.150;2022-12-01T06:47:58;3.20;;;2.37;;
14276;SDS011;7222;57.346;12.150;2022-12-01T06:50:25;3.67;;;2.77;;
14276;SDS011;7222;57.346;12.150;2022-12-01T06:52:53;3.97;;;2.77;;
14276;SDS011;7222;57.346;12.150;2022-12-01T06:55:20;3.40;;;2.60;;
14276;SDS011;7222;57.346;12.150;2022-12-01T06:57:47;4.00;;;2.60;;
14276;SDS011;7222;57.346;12.150;2022-12-01T07:00:15;3.30;;;2.33;;
14276;SDS011;7222;57.346;12.150;2022-12-01T07:02:42;3.40;;;2.47;;
14276;SDS011;7222;57.346;12.150;2022-12-01T07:05:09;3.40;;;2.47;;
14276;SDS011;7222;57.346;12.150;2022-12-01T07:07:36;3.23;;;2.50;;
14276;SDS011;7222;57.346;12.150;2022-12-01T07:10:06;2.87;;;2.40;;
14276;SDS011;7222;57.346;12.150;2022-12-01T07:12:34;3.03;;;2.30;;
14276;SDS011;7222;57.346;12.150;2022-12-01T07:15:02;3.00;;;2.03;;
14276;SDS011;7222;57.346;12.150;2022-12-01T07:17:30;3.87;;;2.90;;
14276;SDS011;7222;57.346;12.150;2022-12-01T07:19:57;3.40;;;2.70;;
14276;SDS011;7222;57.346;12.150;2022-12-01T07:22:24;3.30;;;2.87;;
14276;SDS011;7222;57.346;12.150;2022-12-01T07:24:51;2.80;;;2.33;;
14276;SDS011;7222;57.346;12.150;2022-12-01T07:27:19;2.47;;;2.27;;
14276;SDS011;7222;57.346;12.150;2022-12-01T07:29:46;3.27;;;2.70;;
14276;SDS011;7222;57.346;12.150;2022-12-01T07:32:14;3.80;;;2.70;;
14276;SDS011;7222;57.346;12.150;2022-12-01T07:34:41;3.93;;;2.87;;
14276;SDS011;7222;57.346;12.150;2022-12-01T07:37:08;3.30;;;2.30;;
14276;SDS011;7222;57.346;12.150;2022-12-01T07:39:35;3.17;;;2.37;;
14276;SDS011;7222;57.346;12.150;2022-12-01T07:42:02;4.20;;;2.47;;
14276;SDS011;7222;57.346;12.150;2022-12-01T07:44:30;4.03;;;2.90;;
14276;SDS011;7222;57.346;12.150;2022-12-01T07:46:57;2.40;;;2.20;;
14276;SDS011;7222;57.346;12.150;2022-12-01T07:49:24;3.60;;;2.50;;
14276;SDS011;7222;57.346;12.150;2022-12-01T07:51:51;3.17;;;2.53;;
14276;SDS011;7222;57.346;12.150;2022-12-01T07:54:18;3.37;;;2.77;;
14276;SDS011;7222;57.346;12.150;2022-12-01T07:56:45;3.37;;;2.30;;
14276;SDS011;7222;57.346;12.150;2022-12-01T07:59:12;3.27;;;2.33;;
14276;SDS011;7222;57.346;12.150;2022-12-01T08:01:43;2.83;;;2.47;;
14276;SDS011;7222;57.346;12.150;2022-12-01T08:04:11;3.47;;;2.70;;
14276;SDS011;7222;57.346;12.150;2022-12-01T08:06:38;3.90;;;3.03;;
14276;SDS011;7222;57.346;12.150;2022-12-01T08:09:05;3.07;;;2.40;;
14276;SDS011;7222;57.346;12.150;2022-12-01T08:11:32;4.13;;;2.90;;
14276;SDS011;7222;57.346;12.150;2022-12-01T08:14:00;3.70;;;2.90;;
14276;SDS011;7222;57.346;12.150;2022-12-01T08:16:27;4.40;;;2.63;;
14276;SDS011;7222;57.346;12.150;2022-12-01T08:18:56;2.73;;;2.40;;
14276;SDS011;7222;57.346;12.150;2022-12-01T08:21:23;3.77;;;2.97;;
14276;SDS011;7222;57.346;12.150;2022-12-01T08:23:51;3.10;;;2.50;;
14276;SDS011;7222;57.346;12.150;2022-12-01T08:26:19;3.80;;;2.67;;
14276;SDS011;7222;57.346;12.150;2022-12-01T08:28:47;4.93;;;2.90;;
14276;SDS011;7222;57.346;12.150;2022-12-01T08:31:15;4.50;;;2.47;;
14276;SDS011;7222;57.346;12.150;2022-12-01T08:33:44;5.00;;;2.97;;
14276;SDS011;7222;57.346;12.150;2022-12-01T08:36:12;5.60;;;3.60;;
14276;SDS011;7222;57.346;12.150;2022-12-01T08:38:41;4.63;;;2.73;;
14276;SDS011;7222;57.346;12.150;2022-12-01T08:41:10;4.40;;;3.17;;
14276;SDS011;7222;57.346;12.150;2022-12-01T08:43:37;4.13;;;2.90;;
14276;SDS011;7222;57.346;12.150;2022-12-01T08:46:06;4.30;;;2.73;;
14276;SDS011;7222;57.346;12.150;2022-12-01T08:48:34;4.27;;;3.30;;
14276;SDS011;7222;57.346;12.150;2022-12-01T08:51:02;5.03;;;3.20;;
14276;SDS011;7222;57.346;12.150;2022-12-01T08:53:32;3.50;;;2.97;;
14276;SDS011;7222;57.346;12.150;2022-12-01T08:56:00;4.73;;;3.13;;
14276;SDS011;7222;57.346;12.150;2022-12-01T08:58:28;6.50;;;3.73;;
14276;SDS011;7222;57.346;12.150;2022-12-01T09:01:02;4.60;;;3.53;;
14276;SDS011;7222;57.346;12.150;2022-12-01T09:03:31;7.23;;;4.10;;
14276;SDS011;7222;57.346;12.150;2022-12-01T09:06:03;5.87;;;4.10;;
14276;SDS011;7222;57.346;12.150;2022-12-01T09:08:32;7.90;;;4.30;;
14276;SDS011;7222;57.346;12.150;2022-12-01T09:11:01;7.40;;;4.13;;
14276;SDS011;7222;57.346;12.150;2022-12-01T09:13:32;6.13;;;4.10;;
14276;SDS011;7222;57.346;12.150;2022-12-01T09:16:03;5.73;;;3.40;;
14276;SDS011;7222;57.346;12.150;2022-12-01T09:18:31;7.00;;;3.93;;
14276;SDS011;7222;57.346;12.150;2022-12-01T09:20:59;5.33;;;3.20;;
14276;SDS011;7222;57.346;12.150;2022-12-01T09:23:26;6.33;;;4.10;;
14276;SDS011;7222;57.346;12.150;2022-12-01T09:25:55;6.17;;;4.03;;
14276;SDS011;7222;57.346;12.150;2022-12-01T09:28:25;5.80;;;4.20;;
14276;SDS011;7222;57.346;12.150;2022-12-01T09:30:52;7.33;;;4.57;;
14276;SDS011;7222;57.346;12.150;2022-12-01T09:33:19;6.23;;;3.87;;
14276;SDS011;7222;57.346;12.150;2022-12-01T09:35:46;6.00;;;3.93;;
14276;SDS011;7222;57.346;12.150;2022-12-01T09:38:13;7.10;;;4.10;;
14276;SDS011;7222;57.346;12.150;2022-12-01T09:40:40;6.13;;;4.23;;
14276;SDS011;7222;57.346;12.150;2022-12-01T09:43:13;6.30;;;4.20;;
14276;SDS011;7222;57.346;12.150;2022-12-01T09:45:45;6.60;;;3.83;;
14276;SDS011;7222;57.346;12.150;2022-12-01T09:48:19;6.97;;;4.43;;
14276;SDS011;7222;57.346;12.150;2022-12-01T09:50:52;5.97;;;4.23;;
14276;SDS011;7222;57.346;12.150;2022-12-01T09:53:20;6.40;;;3.70;;
14276;SDS011;7222;57.346;12.150;2022-12-01T09:55:49;5.90;;;3.70;;
14276;SDS011;7222;57.346;12.150;2022-12-01T09:58:19;6.30;;;3.90;;
14276;SDS011;7222;57.346;12.150;2022-12-01T10:00:48;5.70;;;3.03;;
14276;SDS011;7222;57.346;12.150;2022-12-01T10:03:20;5.30;;;3.63;;
14276;SDS011;7222;57.346;12.150;2022-12-01T10:05:53;7.00;;;3.60;;
14276;SDS011;7222;57.346;12.150;2022-12-01T10:08:25;4.57;;;3.73;;
14276;SDS011;7222;57.346;12.150;2022-12-01T10:10:55;5.23;;;3.60;;
14276;SDS011;7222;57.346;12.150;2022-12-01T10:13:27;4.93;;;4.00;;
14276;SDS011;7222;57.346;12.150;2022-12-01T10:15:56;5.47;;;4.10;;
14276;SDS011;7222;57.346;12.150;2022-12-01T10:18:33;5.57;;;3.83;;
14276;SDS011;7222;57.346;12.150;2022-12-01T10:21:08;5.33;;;3.43;;
14276;SDS011;7222;57.346;12.150;2022-12-01T10:23:47;5.87;;;4.00;;
14276;SDS011;7222;57.346;12.150;2022-12-01T10:26:24;4.97;;;3.93;;
14276;SDS011;7222;57.346;12.150;2022-12-01T10:29:01;8.80;;;4.47;;
14276;SDS011;7222;57.346;12.150;2022-12-01T10:31:37;5.77;;;3.90;;
14276;SDS011;7222;57.346;12.150;2022-12-01T10:34:12;5.23;;;3.90;;
14276;SDS011;7222;57.346;12.150;2022-12-01T10:36:42;5.10;;;3.80;;
14276;SDS011;7222;57.346;12.150;2022-12-01T10:39:13;6.10;;;3.80;;
14276;SDS011;7222;57.346;12.150;2022-12-01T10:41:43;6.00;;;3.50;;
14276;SDS011;7222;57.346;12.150;2022-12-01T10:44:14;6.33;;;4.37;;
14276;SDS011;7222;57.346;12.150;2022-12-01T10:46:44;5.67;;;3.67;;
14276;SDS011;7222;57.346;12.150;2022-12-01T10:49:15;5.57;;;3.80;;
14276;SDS011;7222;57.346;12.150;2022-12-01T10:51:51;5.77;;;3.80;;
14276;SDS011;7222;57.346;12.150;2022-12-01T10:54:20;5.37;;;4.30;;
14276;SDS011;7222;57.346;12.150;2022-12-01T10:56:51;4.23;;;3.53;;
14276;SDS011;7222;57.346;12.150;2022-12-01T10:59:24;4.43;;;2.90;;
14276;SDS011;7222;57.346;12.150;2022-12-01T11:01:54;5.10;;;3.53;;
14276;SDS011;7222;57.346;12.150;2022-12-01T11:07:14;4.13;;;3.00;;
14276;SDS011;7222;57.346;12.150;2022-12-01T11:09:44;4.37;;;3.03;;
14276;SDS011;7222;57.346;12.150;2022-12-01T11:12:14;4.93;;;3.33;;
14276;SDS011;7222;57.346;12.150;2022-12-01T11:14:46;5.57;;;3.67;;
14276;SDS011;7222;57.346;12.150;2022-12-01T11:17:25;5.73;;;3.80;;
14276;SDS011;7222;57.346;12.150;2022-12-01T11:19:56;4.17;;;3.23;;
14276;SDS011;7222;57.346;12.150;2022-12-01T11:22:24;4.67;;;3.43;;
14276;SDS011;7222;57.346;12.150;2022-12-01T11:25:00;4.47;;;3.43;;
14276;SDS011;7222;57.346;12.150;2022-12-01T11:27:30;4.13;;;3.03;;
14276;SDS011;7222;57.346;12.150;2022-12-01T11:30:02;3.63;;;3.10;;
14276;SDS011;7222;57.346;12.150;2022-12-01T11:32:32;4.40;;;3.57;;
14276;SDS011;7222;57.346;12.150;2022-12-01T11:35:03;4.33;;;3.07;;
14276;SDS011;7222;57.346;12.150;2022-12-01T11:37:34;5.07;;;3.30;;
14276;SDS011;7222;57.346;12.150;2022-12-01T11:40:05;3.10;;;2.80;;
14276;SDS011;7222;57.346;12.150;2022-12-01T11:42:38;2.87;;;2.43;;
14276;SDS011;7222;57.346;12.150;2022-12-01T11:45:22;4.60;;;3.40;;
14276;SDS011;7222;57.346;12.150;2022-12-01T11:47:57;4.20;;;3.13;;
14276;SDS011;7222;57.346;12.150;2022-12-01T11:50:27;3.63;;;3.23;;
14276;SDS011;7222;57.346;12.150;2022-12-01T11:52:56;4.20;;;2.87;;
14276;SDS011;7222;57.346;12.150;2022-12-01T11:55:24;2.80;;;2.60;;
14276;SDS011;7222;57.346;12.150;2022-12-01T11:57:53;4.57;;;3.70;;
14276;SDS011;7222;57.346;12.150;2022-12-01T12:00:23;3.93;;;3.43;;
14276;SDS011;7222;57.346;12.150;2022-12-01T12:02:59;3.93;;;3.43;;
14276;SDS011;7222;57.346;12.150;2022-12-01T12:05:38;5.07;;;3.40;;
14276;SDS011;7222;57.346;12.150;2022-12-01T12:08:14;2.77;;;2.57;;
14276;SDS011;7222;57.346;12.150;2022-12-01T12:10:50;3.10;;;2.80;;
14276;SDS011;7222;57.346;12.150;2022-12-01T12:13:32;3.43;;;2.83;;
14276;SDS011;7222;57.346;12.150;2022-12-01T12:16:13;3.73;;;2.97;;
14276;SDS011;7222;57.346;12.150;2022-12-01T12:18:52;4.17;;;2.83;;
14276;SDS011;7222;57.346;12.150;2022-12-01T12:21:31;4.93;;;3.57;;
14276;SDS011;7222;57.346;12.150;2022-12-01T12:24:11;4.50;;;3.00;;
14276;SDS011;7222;57.346;12.150;2022-12-01T12:26:54;4.23;;;3.30;;
14276;SDS011;7222;57.346;12.150;2022-12-01T12:29:40;3.87;;;2.80;;
14276;SDS011;7222;57.346;12.150;2022-12-01T12:32:27;3.77;;;3.13;;
14276;SDS011;7222;57.346;12.150;2022-12-01T12:35:05;3.00;;;2.70;;
14276;SDS011;7222;57.346;12.150;2022-12-01T12:37:50;4.43;;;2.70;;
14276;SDS011;7222;57.346;12.150;2022-12-01T12:43:23;3.53;;;3.00;;
14276;SDS011;7222;57.346;12.150;2022-12-01T12:46:01;3.50;;;3.20;;
14276;SDS011;7222;57.346;12.150;2022-12-01T12:48:42;4.53;;;3.50;;
14276;SDS011;7222;57.346;12.150;2022-12-01T12:51:23;3.77;;;3.17;;
14276;SDS011;7222;57.346;12.150;2022-12-01T12:53:56;5.67;;;3.43;;
14276;SDS011;7222;57.346;12.150;2022-12-01T12:56:39;4.67;;;4.00;;
14276;SDS011;7222;57.346;12.150;2022-12-01T12:59:12;5.47;;;4.17;;
14276;SDS011;7222;57.346;12.150;2022-12-01T13:01:46;4.70;;;3.43;;
14276;SDS011;7222;57.346;12.150;2022-12-01T13:04:19;4.07;;;3.20;;
14276;SDS011;7222;57.346;12.150;2022-12-01T13:06:50;3.93;;;3.10;;
14276;SDS011;7222;57.346;12.150;2022-12-01T13:09:27;3.43;;;2.87;;
14276;SDS011;7222;57.346;12.150;2022-12-01T13:11:58;3.30;;;3.00;;
14276;SDS011;7222;57.346;12.150;2022-12-01T13:14:32;3.70;;;3.20;;
14276;SDS011;7222;57.346;12.150;2022-12-01T13:17:04;4.30;;;3.80;;
14276;SDS011;7222;57.346;12.150;2022-12-01T13:19:37;4.93;;;3.40;;
14276;SDS011;7222;57.346;12.150;2022-12-01T13:22:06;3.27;;;2.93;;
14276;SDS011;7222;57.346;12.150;2022-12-01T13:24:34;4.17;;;3.00;;
14276;SDS011;7222;57.346;12.150;2022-12-01T13:27:02;3.97;;;3.57;;
14276;SDS011;7222;57.346;12.150;2022-12-01T13:29:32;4.87;;;3.00;;
14276;SDS011;7222;57.346;12.150;2022-12-01T13:32:01;5.03;;;3.30;;
14276;SDS011;7222;57.346;12.150;2022-12-01T13:34:31;3.43;;;2.70;;
14276;SDS011;7222;57.346;12.150;2022-12-01T13:37:04;3.43;;;2.97;;
14276;SDS011;7222;57.346;12.150;2022-12-01T13:39:31;3.40;;;2.83;;
14276;SDS011;7222;57.346;12.150;2022-12-01T13:42:02;6.13;;;3.90;;
14276;SDS011;7222;57.346;12.150;2022-12-01T13:44:33;4.90;;;3.60;;
14276;SDS011;7222;57.346;12.150;2022-12-01T13:49:57;3.97;;;3.37;;
14276;SDS011;7222;57.346;12.150;2022-12-01T13:53:25;3.70;;;2.97;;
14276;SDS011;7222;57.346;12.150;2022-12-01T13:55:59;4.03;;;3.67;;
14276;SDS011;7222;57.346;12.150;2022-12-01T13:58:40;4.93;;;4.00;;
14276;SDS011;7222;57.346;12.150;2022-12-01T14:04:29;5.40;;;4.10;;
14276;SDS011;7222;57.346;12.150;2022-12-01T14:07:14;3.50;;;2.93;;
14276;SDS011;7222;57.346;12.150;2022-12-01T14:10:06;3.10;;;2.80;;
14276;SDS011;7222;57.346;12.150;2022-12-01T14:12:56;4.57;;;3.20;;
14276;SDS011;7222;57.346;12.150;2022-12-01T14:15:31;3.10;;;2.80;;
14276;SDS011;7222;57.346;12.150;2022-12-01T14:18:05;3.87;;;2.87;;
14276;SDS011;7222;57.346;12.150;2022-12-01T14:20:42;3.17;;;2.77;;
14276;SDS011;7222;57.346;12.150;2022-12-01T14:23:14;3.30;;;2.90;;
14276;SDS011;7222;57.346;12.150;2022-12-01T14:25:58;3.30;;;2.97;;
14276;SDS011;7222;57.346;12.150;2022-12-01T14:34:49;4.37;;;2.70;;
14276;SDS011;7222;57.346;12.150;2022-12-01T14:37:47;3.17;;;2.67;;
14276;SDS011;7222;57.346;12.150;2022-12-01T14:40:21;3.73;;;2.80;;
14276;SDS011;7222;57.346;12.150;2022-12-01T14:42:54;2.90;;;2.60;;
14276;SDS011;7222;57.346;12.150;2022-12-01T14:45:41;3.73;;;2.93;;
14276;SDS011;7222;57.346;12.150;2022-12-01T14:48:20;3.23;;;2.63;;
14276;SDS011;7222;57.346;12.150;2022-12-01T14:50:52;3.10;;;2.80;;
14276;SDS011;7222;57.346;12.150;2022-12-01T14:53:26;3.57;;;2.50;;
14276;SDS011;7222;57.346;12.150;2022-12-01T14:55:59;3.63;;;2.70;;
14276;SDS011;7222;57.346;12.150;2022-12-01T14:58:50;2.63;;;2.37;;
14276;SDS011;7222;57.346;12.150;2022-12-01T15:01:19;4.37;;;3.00;;
14276;SDS011;7222;57.346;12.150;2022-12-01T15:03:47;2.90;;;2.60;;
14276;SDS011;7222;57.346;12.150;2022-12-01T15:06:17;3.80;;;2.50;;
14276;SDS011;7222;57.346;12.150;2022-12-01T15:08:45;3.10;;;2.80;;
14276;SDS011;7222;57.346;12.150;2022-12-01T15:11:30;3.47;;;2.57;;
14276;SDS011;7222;57.346;12.150;2022-12-01T15:13:57;3.83;;;3.03;;
14276;SDS011;7222;57.346;12.150;2022-12-01T15:16:25;2.87;;;2.60;;
14276;SDS011;7222;57.346;12.150;2022-12-01T15:18:55;4.07;;;2.80;;
14276;SDS011;7222;57.346;12.150;2022-12-01T15:21:24;3.70;;;2.63;;
14276;SDS011;7222;57.346;12.150;2022-12-01T15:23:57;3.03;;;2.77;;
14276;SDS011;7222;57.346;12.150;2022-12-01T15:26:25;4.23;;;3.03;;
14276;SDS011;7222;57.346;12.150;2022-12-01T15:29:11;3.10;;;2.57;;
14276;SDS011;7222;57.346;12.150;2022-12-01T15:31:40;4.50;;;3.57;;
14276;SDS011;7222;57.346;12.150;2022-12-01T15:34:10;4.03;;;3.33;;